createdAt,value
2019-02-15T00:02:15.765Z,3.20
2019-02-15T00:04:44.338Z,3.00
2019-02-15T00:07:12.254Z,3.87
2019-02-15T00:09:41.091Z,3.97
2019-02-15T00:12:09.285Z,3.17
2019-02-15T00:14:45.610Z,3.80
2019-02-15T00:17:15.221Z,3.40
2019-02-15T00:19:46.550Z,3.40
2019-02-15T00:22:14.897Z,2.97
2019-02-15T00:24:43.259Z,3.20
2019-02-15T00:27:10.935Z,3.20
2019-02-15T00:29:39.153Z,2.77
2019-02-15T00:32:07.458Z,3.03
2019-02-15T00:34:35.876Z,2.47
2019-02-15T00:37:04.022Z,2.80
2019-02-15T00:39:32.326Z,3.73
2019-02-15T00:42:00.526Z,3.50
2019-02-15T00:44:28.250Z,3.17
2019-02-15T00:47:25.501Z,3.10
2019-02-15T00:50:07.364Z,2.70
2019-02-15T00:52:52.790Z,2.83
2019-02-15T00:55:38.406Z,2.90
2019-02-15T00:58:28.615Z,3.07
2019-02-15T01:01:18.521Z,2.90
2019-02-15T01:03:58.176Z,2.80
2019-02-15T01:06:36.877Z,2.93
2019-02-15T01:09:12.014Z,2.90
2019-02-15T01:11:47.802Z,2.60
2019-02-15T01:14:15.749Z,3.10
2019-02-15T01:16:43.718Z,2.80
2019-02-15T01:19:12.094Z,3.20
2019-02-15T01:21:40.849Z,2.80
2019-02-15T01:24:08.911Z,3.17
2019-02-15T01:26:44.827Z,3.20
2019-02-15T01:29:38.081Z,3.40
2019-02-15T01:32:26.193Z,2.93
2019-02-15T01:35:16.165Z,2.80
2019-02-15T01:38:09.498Z,2.60
2019-02-15T01:41:11.935Z,2.93
2019-02-15T01:44:01.941Z,3.00
2019-02-15T01:46:48.930Z,3.03
2019-02-15T01:49:17.042Z,2.90
2019-02-15T01:51:45.049Z,2.97
2019-02-15T01:54:12.744Z,2.83
2019-02-15T01:56:40.682Z,3.00
2019-02-15T01:59:08.467Z,3.10
2019-02-15T02:01:36.199Z,2.50
2019-02-15T02:04:03.979Z,2.90
2019-02-15T02:06:31.874Z,3.10
2019-02-15T02:09:00.224Z,2.63
2019-02-15T02:11:28.437Z,2.90
2019-02-15T02:13:56.198Z,2.80
2019-02-15T02:16:23.959Z,2.63
2019-02-15T02:18:52.305Z,2.70
2019-02-15T02:21:20.311Z,3.00
2019-02-15T02:23:48.362Z,2.60
2019-02-15T02:26:16.326Z,2.90
2019-02-15T02:28:44.615Z,2.90
2019-02-15T02:31:12.632Z,2.73
2019-02-15T02:33:40.639Z,2.83
2019-02-15T02:36:08.598Z,2.80
2019-02-15T02:38:36.674Z,3.07
2019-02-15T02:41:05.277Z,2.47
2019-02-15T02:43:33.353Z,2.90
2019-02-15T02:46:02.114Z,2.73
2019-02-15T02:48:30.220Z,3.10
2019-02-15T02:50:58.597Z,2.57
2019-02-15T02:53:26.578Z,2.60
2019-02-15T02:55:54.613Z,2.93
2019-02-15T02:58:22.743Z,2.57
2019-02-15T03:00:50.769Z,2.60
2019-02-15T03:03:19.181Z,2.20
2019-02-15T03:05:47.185Z,2.33
2019-02-15T03:08:15.109Z,2.40
2019-02-15T03:10:43.453Z,2.80
2019-02-15T03:13:11.442Z,2.90
2019-02-15T03:15:39.475Z,2.50
2019-02-15T03:18:07.662Z,2.73
2019-02-15T03:20:35.602Z,2.30
2019-02-15T03:23:03.601Z,2.30
2019-02-15T03:25:32.669Z,2.37
2019-02-15T03:28:01.428Z,2.40
2019-02-15T03:30:30.221Z,2.33
2019-02-15T03:32:58.323Z,2.10
2019-02-15T03:35:26.097Z,2.27
2019-02-15T03:38:02.187Z,2.20
2019-02-15T03:40:42.397Z,2.40
2019-02-15T03:43:10.632Z,2.10
2019-02-15T03:45:39.054Z,2.10
2019-02-15T03:48:07.334Z,2.40
2019-02-15T03:50:35.314Z,2.00
2019-02-15T03:53:03.297Z,1.90
2019-02-15T03:55:31.905Z,2.13
2019-02-15T03:58:00.300Z,1.90
2019-02-15T04:00:28.387Z,2.10
2019-02-15T04:02:56.710Z,2.07
2019-02-15T04:05:24.381Z,2.17
2019-02-15T04:07:52.675Z,2.13
2019-02-15T04:10:20.750Z,2.20
2019-02-15T04:12:48.457Z,2.30
2019-02-15T04:15:16.819Z,1.93
2019-02-15T04:17:44.858Z,1.90
2019-02-15T04:20:12.514Z,1.90
2019-02-15T04:22:40.903Z,2.03
2019-02-15T04:25:08.568Z,2.17
2019-02-15T04:27:36.393Z,1.93
2019-02-15T04:30:04.195Z,1.90
2019-02-15T04:32:31.882Z,2.10
2019-02-15T04:35:00.210Z,2.20
2019-02-15T04:37:28.374Z,2.20
2019-02-15T04:39:56.776Z,2.20
2019-02-15T04:42:24.927Z,2.23
2019-02-15T04:44:53.230Z,2.67
2019-02-15T04:47:20.919Z,2.30
2019-02-15T04:49:48.972Z,2.10
2019-02-15T04:52:17.189Z,2.20
2019-02-15T04:54:45.148Z,2.17
2019-02-15T04:57:13.702Z,2.30
2019-02-15T04:59:41.749Z,2.10
2019-02-15T05:02:10.291Z,2.10
2019-02-15T05:04:38.285Z,1.97
2019-02-15T05:07:05.972Z,2.50
2019-02-15T05:09:33.640Z,2.20
2019-02-15T05:12:01.543Z,2.37
2019-02-15T05:14:29.526Z,2.20
2019-02-15T05:16:57.235Z,2.40
2019-02-15T05:19:25.267Z,2.37
2019-02-15T05:21:53.013Z,2.30
2019-02-15T05:24:20.969Z,2.60
2019-02-15T05:26:50.573Z,2.53
2019-02-15T05:29:18.327Z,2.70
2019-02-15T05:31:46.770Z,2.67
2019-02-15T05:34:16.116Z,2.40
2019-02-15T05:36:44.202Z,2.20
2019-02-15T05:39:12.210Z,2.27
2019-02-15T05:41:40.176Z,2.30
2019-02-15T05:44:08.195Z,2.30
2019-02-15T05:46:36.590Z,2.30
2019-02-15T05:49:04.555Z,2.20
2019-02-15T05:51:32.521Z,2.40
2019-02-15T05:54:00.834Z,2.10
2019-02-15T05:56:29.156Z,2.43
2019-02-15T05:58:57.301Z,2.47
2019-02-15T06:01:26.790Z,2.63
2019-02-15T06:03:54.981Z,2.33
2019-02-15T06:06:22.654Z,2.33
2019-02-15T06:08:50.368Z,2.30
2019-02-15T06:11:18.570Z,2.50
2019-02-15T06:13:46.799Z,2.33
2019-02-15T06:16:14.495Z,2.30
2019-02-15T06:18:42.500Z,2.50
2019-02-15T06:21:10.175Z,2.17
2019-02-15T06:23:38.167Z,2.67
2019-02-15T06:26:06.169Z,2.33
2019-02-15T06:28:34.131Z,2.43
2019-02-15T06:31:01.798Z,2.07
2019-02-15T06:33:30.805Z,2.70
2019-02-15T06:35:58.778Z,2.40
2019-02-15T06:38:34.583Z,2.07
2019-02-15T06:40:56.877Z,2.20
2019-02-15T06:43:24.991Z,2.10
2019-02-15T06:45:53.518Z,2.00
2019-02-15T06:48:21.470Z,2.10
2019-02-15T06:50:50.071Z,2.00
2019-02-15T06:53:18.182Z,1.87
2019-02-15T06:55:46.314Z,2.07
2019-02-15T06:58:14.353Z,2.40
2019-02-15T07:01:04.154Z,2.00
2019-02-15T07:03:51.889Z,2.10
2019-02-15T07:06:20.081Z,1.87
2019-02-15T07:08:48.557Z,1.90
2019-02-15T07:11:16.489Z,2.10
2019-02-15T07:13:44.472Z,2.07
2019-02-15T07:16:12.381Z,1.90
2019-02-15T07:18:40.389Z,2.20
2019-02-15T07:21:08.603Z,1.93
2019-02-15T07:23:53.486Z,2.07
2019-02-15T07:26:21.259Z,2.03
2019-02-15T07:28:49.610Z,2.30
2019-02-15T07:31:17.627Z,2.20
2019-02-15T07:33:45.961Z,2.23
2019-02-15T07:36:13.974Z,2.80
2019-02-15T07:38:41.949Z,2.33
2019-02-15T07:41:10.337Z,2.70
2019-02-15T07:43:38.370Z,2.70
2019-02-15T07:46:06.585Z,2.40
2019-02-15T07:48:34.513Z,2.73
2019-02-15T07:51:09.322Z,2.57
2019-02-15T07:53:31.866Z,2.43
2019-02-15T07:56:00.148Z,2.90
2019-02-15T07:58:29.161Z,2.40
2019-02-15T08:00:57.738Z,2.70
2019-02-15T08:03:25.666Z,2.50
2019-02-15T08:05:53.569Z,2.70
2019-02-15T08:08:21.490Z,2.80
2019-02-15T08:10:49.437Z,2.27
2019-02-15T08:13:17.161Z,2.70
2019-02-15T08:15:51.531Z,2.53
2019-02-15T08:18:14.548Z,2.73
2019-02-15T08:20:42.498Z,2.60
2019-02-15T08:23:10.158Z,2.70
2019-02-15T08:25:38.116Z,2.87
2019-02-15T08:28:05.777Z,2.80
2019-02-15T08:30:33.862Z,2.70
2019-02-15T08:33:02.237Z,3.17
2019-02-15T08:35:30.514Z,2.30
2019-02-15T08:37:58.541Z,2.80
2019-02-15T08:40:26.740Z,3.03
2019-02-15T08:42:55.970Z,2.93
2019-02-15T08:45:24.665Z,2.60
2019-02-15T08:47:52.668Z,2.87
2019-02-15T08:50:20.421Z,2.93
2019-02-15T08:52:48.409Z,2.97
2019-02-15T08:55:16.350Z,3.13
2019-02-15T08:57:44.703Z,3.20
2019-02-15T09:00:12.725Z,3.00
2019-02-15T09:02:41.316Z,2.80
2019-02-15T09:05:09.731Z,3.17
2019-02-15T09:07:38.002Z,2.77
2019-02-15T09:10:07.316Z,3.20
2019-02-15T09:12:35.354Z,2.83
2019-02-15T09:15:03.296Z,3.13
2019-02-15T09:17:31.237Z,2.90
2019-02-15T09:19:59.165Z,3.20
2019-02-15T09:22:27.163Z,3.20
2019-02-15T09:24:54.921Z,2.97
2019-02-15T09:27:36.434Z,3.37
2019-02-15T09:30:05.664Z,3.60
2019-02-15T09:32:33.580Z,3.80
2019-02-15T09:35:01.777Z,3.90
2019-02-15T09:37:30.434Z,4.17
2019-02-15T09:39:58.416Z,3.80
2019-02-15T09:42:26.425Z,3.50
2019-02-15T09:44:54.369Z,3.37
2019-02-15T09:47:22.335Z,4.40
2019-02-15T09:49:50.349Z,3.87
2019-02-15T09:52:17.998Z,3.40
2019-02-15T09:54:45.972Z,3.60
2019-02-15T09:57:14.559Z,3.70
2019-02-15T09:59:42.233Z,3.30
2019-02-15T10:02:10.041Z,4.20
2019-02-15T10:04:38.469Z,3.50
2019-02-15T10:07:07.285Z,3.37
2019-02-15T10:09:35.445Z,3.77
2019-02-15T10:12:03.642Z,4.00
2019-02-15T10:14:31.706Z,4.00
2019-02-15T10:16:59.697Z,3.80
2019-02-15T10:19:27.398Z,3.57
2019-02-15T10:21:55.365Z,3.53
2019-02-15T10:24:23.305Z,4.40
2019-02-15T10:26:50.948Z,4.00
2019-02-15T10:29:19.042Z,3.33
2019-02-15T10:31:47.357Z,4.20
2019-02-15T10:34:15.357Z,4.23
2019-02-15T10:36:43.393Z,4.13
2019-02-15T10:39:11.300Z,3.53
2019-02-15T10:41:38.992Z,3.60
2019-02-15T10:44:07.658Z,3.53
2019-02-15T10:46:37.844Z,4.80
2019-02-15T10:49:05.141Z,3.63
2019-02-15T10:51:33.413Z,3.20
2019-02-15T10:54:01.370Z,3.30
2019-02-15T10:56:29.638Z,4.07
2019-02-15T10:58:57.854Z,3.67
2019-02-15T11:01:26.088Z,3.83
2019-02-15T11:03:54.424Z,3.57
2019-02-15T11:06:22.438Z,3.20
2019-02-15T11:08:50.704Z,3.90
2019-02-15T11:11:18.552Z,3.37
2019-02-15T11:13:46.473Z,3.30
2019-02-15T11:16:14.806Z,3.67
2019-02-15T11:18:42.717Z,3.80
2019-02-15T11:21:10.820Z,3.20
2019-02-15T11:23:38.758Z,3.13
2019-02-15T11:26:07.117Z,3.70
2019-02-15T11:28:35.194Z,3.90
2019-02-15T11:31:03.158Z,3.37
2019-02-15T11:33:31.434Z,3.30
2019-02-15T11:35:59.092Z,3.20
2019-02-15T11:38:27.064Z,3.00
2019-02-15T11:40:55.038Z,3.50
2019-02-15T11:43:23.045Z,3.30
2019-02-15T11:45:50.969Z,3.30
2019-02-15T11:48:18.997Z,3.20
2019-02-15T11:50:47.213Z,2.73
2019-02-15T11:53:15.674Z,3.07
2019-02-15T11:55:43.334Z,3.30
2019-02-15T11:58:11.609Z,3.30
2019-02-15T12:00:39.328Z,2.90
2019-02-15T12:03:07.574Z,3.10
2019-02-15T12:05:35.652Z,3.60
2019-02-15T12:08:03.608Z,2.77
2019-02-15T12:10:31.277Z,3.37
2019-02-15T12:12:59.209Z,2.70
2019-02-15T12:15:27.200Z,2.70
2019-02-15T12:17:56.618Z,3.10
2019-02-15T12:20:24.886Z,2.77
2019-02-15T12:22:52.849Z,2.80
2019-02-15T12:25:21.037Z,2.80
2019-02-15T12:27:49.373Z,2.80
2019-02-15T12:30:17.346Z,2.43
2019-02-15T12:32:45.342Z,2.97
2019-02-15T12:35:13.438Z,2.80
2019-02-15T12:37:42.345Z,3.13
2019-02-15T12:40:10.361Z,2.40
2019-02-15T12:42:38.010Z,2.80
2019-02-15T12:45:06.215Z,2.60
2019-02-15T12:47:34.697Z,2.53
2019-02-15T12:50:02.741Z,2.73
2019-02-15T12:52:30.655Z,2.70
2019-02-15T12:54:58.751Z,2.50
2019-02-15T12:57:27.302Z,2.87
2019-02-15T12:59:55.664Z,2.67
2019-02-15T13:02:23.310Z,2.57
2019-02-15T13:04:51.213Z,2.80
2019-02-15T13:07:19.504Z,2.47
2019-02-15T13:09:47.150Z,2.33
2019-02-15T13:12:14.810Z,2.50
2019-02-15T13:14:43.109Z,2.43
2019-02-15T13:17:11.364Z,2.67
2019-02-15T13:19:39.459Z,2.40
2019-02-15T13:22:07.785Z,1.97
2019-02-15T13:24:35.761Z,2.10
2019-02-15T13:27:03.450Z,2.47
2019-02-15T13:29:31.369Z,2.20
2019-02-15T13:31:59.335Z,2.00
2019-02-15T13:34:27.289Z,2.27
2019-02-15T13:36:55.635Z,2.40
2019-02-15T13:39:23.603Z,2.17
2019-02-15T13:41:51.846Z,2.37
2019-02-15T13:44:19.576Z,1.80
2019-02-15T13:46:47.226Z,2.50
2019-02-15T13:49:14.887Z,2.13
2019-02-15T13:51:42.622Z,2.53
2019-02-15T13:54:10.971Z,1.90
2019-02-15T13:56:40.547Z,2.00
2019-02-15T13:59:09.408Z,1.97
2019-02-15T14:01:37.997Z,2.20
2019-02-15T14:04:06.366Z,2.10
2019-02-15T14:06:34.330Z,2.03
2019-02-15T14:09:02.585Z,2.20
2019-02-15T14:11:31.161Z,2.10
2019-02-15T14:13:59.437Z,1.80
2019-02-15T14:16:27.353Z,2.27
2019-02-15T14:18:55.665Z,2.00
2019-02-15T14:21:23.401Z,1.93
2019-02-15T14:23:51.406Z,1.90
2019-02-15T14:26:19.432Z,2.10
2019-02-15T14:28:47.765Z,2.60
2019-02-15T14:31:15.912Z,2.63
2019-02-15T14:33:43.568Z,2.10
2019-02-15T14:36:11.805Z,2.43
2019-02-15T14:38:39.469Z,2.30
2019-02-15T14:41:07.649Z,2.33
2019-02-15T14:43:35.685Z,2.30
2019-02-15T14:46:03.620Z,2.20
2019-02-15T14:48:31.825Z,2.30
2019-02-15T14:51:00.034Z,2.00
2019-02-15T14:53:30.466Z,2.00
2019-02-15T14:55:57.688Z,1.90
2019-02-15T14:58:25.354Z,2.10
2019-02-15T15:00:53.309Z,2.00
2019-02-15T15:03:21.247Z,1.97
2019-02-15T15:05:48.908Z,1.93
2019-02-15T15:08:16.824Z,1.90
2019-02-15T15:10:44.490Z,2.00
2019-02-15T15:13:12.650Z,2.03
2019-02-15T15:15:40.745Z,1.90
2019-02-15T15:18:13.075Z,2.10
2019-02-15T15:20:37.882Z,2.63
2019-02-15T15:23:07.422Z,2.30
2019-02-15T15:25:35.592Z,2.60
2019-02-15T15:28:03.563Z,1.90
2019-02-15T15:30:31.234Z,2.23
2019-02-15T15:32:59.321Z,1.90
2019-02-15T15:35:27.387Z,2.20
2019-02-15T15:37:55.702Z,1.90
2019-02-15T15:40:23.618Z,1.90
2019-02-15T15:42:51.521Z,2.10
2019-02-15T15:45:19.665Z,2.23
2019-02-15T15:47:47.379Z,2.00
2019-02-15T15:50:15.370Z,2.10
2019-02-15T15:52:43.327Z,2.00
2019-02-15T15:55:11.015Z,2.10
2019-02-15T15:57:39.000Z,2.00
2019-02-15T16:00:07.393Z,1.80
2019-02-15T16:02:35.315Z,2.10
2019-02-15T16:05:03.269Z,2.00
2019-02-15T16:07:31.218Z,1.93
2019-02-15T16:10:00.371Z,1.90
2019-02-15T16:12:28.147Z,1.80
2019-02-15T16:14:56.549Z,1.87
2019-02-15T16:17:28.569Z,2.30
2019-02-15T16:19:56.594Z,2.00
2019-02-15T16:22:26.038Z,2.23
2019-02-15T16:24:54.357Z,2.33
2019-02-15T16:27:23.645Z,2.00
2019-02-15T16:29:52.109Z,1.83
2019-02-15T16:32:20.239Z,1.80
2019-02-15T16:34:48.086Z,2.60
2019-02-15T16:37:16.466Z,1.60
2019-02-15T16:39:45.050Z,2.03
2019-02-15T16:42:13.034Z,1.93
2019-02-15T16:44:43.698Z,2.30
2019-02-15T16:47:11.964Z,1.90
2019-02-15T16:49:42.863Z,1.90
2019-02-15T16:52:10.788Z,1.67
2019-02-15T16:54:38.441Z,3.57
2019-02-15T16:57:07.145Z,2.10
2019-02-15T16:59:35.070Z,1.83
2019-02-15T17:02:03.081Z,2.20
2019-02-15T17:04:30.730Z,2.10
2019-02-15T17:07:00.146Z,2.40
2019-02-15T17:09:28.288Z,2.20
2019-02-15T17:11:56.323Z,2.23
2019-02-15T17:14:24.573Z,2.13
2019-02-15T17:16:52.606Z,2.20
2019-02-15T17:19:20.257Z,2.17
2019-02-15T17:21:48.265Z,2.40
2019-02-15T17:24:18.414Z,2.20
2019-02-15T17:26:46.475Z,2.00
2019-02-15T17:29:14.795Z,3.20
2019-02-15T17:31:42.470Z,3.97
2019-02-15T17:34:11.729Z,2.90
2019-02-15T17:36:40.088Z,3.20
2019-02-15T17:39:08.325Z,3.30
2019-02-15T17:41:36.960Z,2.90
2019-02-15T17:44:04.985Z,3.33
2019-02-15T17:46:33.407Z,2.80
2019-02-15T17:49:03.361Z,2.57
2019-02-15T17:51:31.444Z,2.57
2019-02-15T17:54:00.029Z,2.70
2019-02-15T17:56:28.130Z,2.90
2019-02-15T17:58:55.798Z,2.77
2019-02-15T18:01:23.525Z,2.60
2019-02-15T18:03:52.153Z,2.60
2019-02-15T18:06:20.645Z,3.33
2019-02-15T18:08:48.592Z,2.70
2019-02-15T18:11:16.240Z,2.90
2019-02-15T18:13:44.200Z,3.17
2019-02-15T18:16:12.438Z,2.80
2019-02-15T18:18:40.743Z,3.10
2019-02-15T18:21:08.678Z,4.50
2019-02-15T18:23:36.352Z,3.00
2019-02-15T18:26:05.560Z,2.80
2019-02-15T18:28:33.519Z,6.17
2019-02-15T18:31:01.898Z,4.00
2019-02-15T18:33:29.865Z,2.70
2019-02-15T18:36:02.270Z,3.80
2019-02-15T18:38:30.392Z,3.27
2019-02-15T18:40:58.668Z,2.90
2019-02-15T18:43:26.681Z,2.60
2019-02-15T18:45:54.912Z,3.67
2019-02-15T18:48:23.198Z,2.83
2019-02-15T18:50:51.522Z,3.10
2019-02-15T18:53:19.893Z,5.40
2019-02-15T18:55:48.201Z,4.60
2019-02-15T18:58:16.302Z,5.10
2019-02-15T19:00:44.660Z,5.63
2019-02-15T19:03:12.309Z,4.33
2019-02-15T19:05:40.000Z,3.80
2019-02-15T19:08:08.457Z,4.00
2019-02-15T19:10:36.787Z,4.73
2019-02-15T19:13:08.290Z,4.73
2019-02-15T19:15:36.486Z,5.77
2019-02-15T19:18:04.154Z,5.40
2019-02-15T19:20:32.163Z,3.83
2019-02-15T19:23:00.781Z,2.93
2019-02-15T19:25:31.663Z,4.17
2019-02-15T19:27:59.412Z,4.30
2019-02-15T19:30:27.547Z,3.67
2019-02-15T19:32:55.218Z,3.00
2019-02-15T19:35:23.804Z,2.77
2019-02-15T19:37:51.880Z,2.67
2019-02-15T19:40:19.554Z,2.83
2019-02-15T19:42:50.379Z,3.00
2019-02-15T19:45:17.694Z,3.03
2019-02-15T19:47:45.388Z,2.80
2019-02-15T19:50:13.357Z,2.60
2019-02-15T19:52:41.447Z,2.70
2019-02-15T19:55:09.414Z,2.90
2019-02-15T19:57:37.597Z,2.80
2019-02-15T20:00:06.261Z,2.80
2019-02-15T20:02:34.386Z,2.70
2019-02-15T20:05:02.573Z,2.43
2019-02-15T20:07:30.310Z,2.70
2019-02-15T20:09:59.617Z,2.80
2019-02-15T20:12:27.604Z,3.20
2019-02-15T20:14:55.950Z,2.67
2019-02-15T20:17:24.175Z,2.77
2019-02-15T20:19:52.101Z,3.50
2019-02-15T20:22:20.049Z,3.10
2019-02-15T20:24:47.965Z,3.33
2019-02-15T20:27:16.169Z,2.87
2019-02-15T20:29:49.467Z,2.73
2019-02-15T20:32:13.849Z,3.07
2019-02-15T20:34:45.338Z,2.70
2019-02-15T20:37:12.165Z,3.00
2019-02-15T20:39:39.905Z,3.17
2019-02-15T20:42:07.917Z,3.30
2019-02-15T20:44:35.875Z,3.30
2019-02-15T20:47:06.834Z,3.57
2019-02-15T20:49:35.130Z,3.20
2019-02-15T20:52:03.075Z,3.00
2019-02-15T20:54:31.304Z,3.10
2019-02-15T20:57:01.093Z,3.03
2019-02-15T20:59:29.052Z,3.00
2019-02-15T21:01:56.977Z,3.60
2019-02-15T21:04:25.608Z,3.40
2019-02-15T21:06:54.114Z,3.50
2019-02-15T21:09:21.773Z,3.27
2019-02-15T21:11:49.705Z,3.37
2019-02-15T21:14:19.977Z,3.87
2019-02-15T21:16:48.091Z,3.57
2019-02-15T21:19:16.042Z,3.63
2019-02-15T21:21:44.222Z,3.40
2019-02-15T21:24:12.169Z,3.43
2019-02-15T21:26:40.541Z,3.73
2019-02-15T21:29:08.945Z,3.60
2019-02-15T21:31:39.044Z,3.70
2019-02-15T21:34:06.664Z,3.83
2019-02-15T21:36:34.317Z,3.97
2019-02-15T21:39:01.970Z,3.90
2019-02-15T21:41:29.911Z,4.20
2019-02-15T21:43:57.850Z,3.87
2019-02-15T21:46:25.510Z,4.20
2019-02-15T21:48:53.505Z,3.60
2019-02-15T21:51:21.169Z,4.13
2019-02-15T21:53:49.430Z,4.03
2019-02-15T21:56:17.376Z,3.93
2019-02-15T21:58:45.061Z,3.67
2019-02-15T22:01:13.350Z,4.07
2019-02-15T22:03:41.734Z,3.87
2019-02-15T22:06:10.017Z,4.07
2019-02-15T22:08:37.945Z,4.23
2019-02-15T22:11:05.730Z,4.00
2019-02-15T22:13:34.887Z,4.20
2019-02-15T22:16:02.763Z,4.07
2019-02-15T22:18:32.281Z,4.27
2019-02-15T22:21:00.541Z,4.37
2019-02-15T22:23:29.998Z,4.17
2019-02-15T22:25:57.978Z,4.73
2019-02-15T22:28:25.919Z,3.87
2019-02-15T22:30:53.590Z,4.90
2019-02-15T22:33:21.930Z,4.40
2019-02-15T22:35:50.282Z,4.13
2019-02-15T22:38:18.613Z,4.17
2019-02-15T22:40:46.628Z,4.30
2019-02-15T22:43:18.274Z,3.90
2019-02-15T22:45:46.311Z,4.03
2019-02-15T22:48:14.690Z,4.47
2019-02-15T22:50:44.133Z,4.30
2019-02-15T22:53:12.065Z,4.63
2019-02-15T22:55:40.262Z,4.60
2019-02-15T22:58:08.305Z,4.10
2019-02-15T23:00:48.460Z,4.20
2019-02-15T23:03:17.295Z,4.10
2019-02-15T23:05:45.214Z,4.60
2019-02-15T23:08:13.672Z,4.60
2019-02-15T23:10:44.044Z,4.40
2019-02-15T23:13:11.793Z,4.30
2019-02-15T23:15:40.120Z,4.43
2019-02-15T23:18:11.434Z,4.77
2019-02-15T23:20:45.279Z,4.33
2019-02-15T23:23:09.393Z,4.60
2019-02-15T23:25:37.043Z,4.30
2019-02-15T23:28:06.225Z,4.90
2019-02-15T23:30:34.516Z,4.57
2019-02-15T23:33:02.722Z,4.77
2019-02-15T23:35:30.701Z,4.40
2019-02-15T23:37:59.059Z,5.03
2019-02-15T23:40:27.343Z,4.10
2019-02-15T23:42:55.382Z,4.50
2019-02-15T23:45:23.547Z,4.97
2019-02-15T23:47:52.772Z,4.50
2019-02-15T23:50:20.718Z,4.67
2019-02-15T23:52:48.929Z,4.20
2019-02-15T23:55:17.166Z,5.43
2019-02-15T23:57:45.494Z,4.63
